Terminal Aerodrome Forecast
Issued by NWS

Home | Current Version | Previous Version | Graphics & Text | Print | Product List | Glossary On
Versions: 1 2 3 4 5 6 7 8 9 10 11 12 13 14 15 16 17 18
057
FTUS43 KABR 071735
TAFMBG
TAF
KMBG 071735Z 0718/0818 33034G49KT P6SM VCSH OVC030
     FM072100 33033G46KT P6SM BKN030
     FM080400 33029G40KT P6SM SCT035
     FM080700 33023G32KT P6SM SCT035=

USA.gov is the U.S. government's official web portal to all federal, state and local government web resources and services.